createdAt,value
2023-12-23T00:00:15.565Z,88
2023-12-23T00:01:21.832Z,87.5
2023-12-23T00:02:28.104Z,89
2023-12-23T00:03:34.378Z,87.5
2023-12-23T00:04:40.646Z,87
2023-12-23T00:05:46.916Z,87.5
2023-12-23T00:06:53.188Z,87.5
2023-12-23T00:07:59.458Z,86
2023-12-23T00:09:05.727Z,86.5
2023-12-23T00:10:12.017Z,88
2023-12-23T00:11:17.286Z,88
2023-12-23T00:12:23.571Z,87
2023-12-23T00:13:29.826Z,87
2023-12-23T00:14:36.095Z,87.5
2023-12-23T00:15:42.386Z,87
2023-12-23T00:16:48.648Z,86.5
2023-12-23T00:17:54.929Z,87
2023-12-23T00:19:01.195Z,86.5
2023-12-23T00:20:07.477Z,86.5
2023-12-23T00:21:13.736Z,86.5
2023-12-23T00:22:20.017Z,87
2023-12-23T00:23:26.381Z,86
2023-12-23T00:24:32.570Z,86.5
2023-12-23T00:25:37.850Z,86
2023-12-23T00:26:44.132Z,86.5
2023-12-23T00:27:50.435Z,87
2023-12-23T00:28:56.665Z,85.5
2023-12-23T00:30:02.935Z,86
2023-12-23T00:31:09.199Z,85.5
2023-12-23T00:32:15.484Z,85.5
2023-12-23T00:33:21.754Z,86.5
2023-12-23T00:34:28.025Z,85.5
2023-12-23T00:35:34.309Z,86
2023-12-23T00:36:40.567Z,85.5
2023-12-23T00:37:46.860Z,86
2023-12-23T00:38:53.111Z,86
2023-12-23T00:39:58.408Z,85.5
2023-12-23T00:41:04.678Z,86.5
2023-12-23T00:42:10.942Z,86
2023-12-23T00:43:17.212Z,85.5
2023-12-23T00:44:23.513Z,86.5
2023-12-23T00:45:29.758Z,87.5
2023-12-23T00:46:36.032Z,87
2023-12-23T00:47:42.291Z,88
2023-12-23T00:48:48.574Z,87.5
2023-12-23T00:49:54.851Z,86.5
2023-12-23T00:51:01.144Z,87.5
2023-12-23T00:52:07.388Z,88
2023-12-23T00:53:13.668Z,87.5
2023-12-23T00:54:18.958Z,88
2023-12-23T00:55:25.220Z,89
2023-12-23T00:56:31.501Z,88.5
2023-12-23T00:57:37.796Z,89
2023-12-23T00:58:44.035Z,87.5
2023-12-23T00:59:50.321Z,88
2023-12-23T01:00:56.586Z,88.5
2023-12-23T01:02:02.857Z,89
2023-12-23T01:03:09.123Z,89
2023-12-23T01:04:15.403Z,89
2023-12-23T01:05:21.675Z,89.5
2023-12-23T01:06:27.941Z,90.5
2023-12-23T01:07:34.222Z,90
2023-12-23T01:08:39.516Z,90
2023-12-23T01:09:45.782Z,89.5
2023-12-23T01:10:52.054Z,89.5
2023-12-23T01:11:58.321Z,90
2023-12-23T01:13:04.595Z,89.5
2023-12-23T01:14:10.866Z,90
2023-12-23T01:15:17.152Z,89.5
2023-12-23T01:16:23.418Z,88.5
2023-12-23T01:17:29.679Z,90
2023-12-23T01:18:35.950Z,89.5
2023-12-23T01:19:42.228Z,89
2023-12-23T01:20:48.506Z,90.5
2023-12-23T01:21:54.766Z,91
2023-12-23T01:23:00.062Z,91.5
2023-12-23T01:24:06.329Z,91
2023-12-23T01:25:12.611Z,92
2023-12-23T01:26:18.895Z,91
2023-12-23T01:27:25.152Z,91
2023-12-23T01:28:31.417Z,92
2023-12-23T01:29:37.702Z,90.5
2023-12-23T01:30:43.961Z,91
2023-12-23T01:31:50.232Z,90
2023-12-23T01:32:56.501Z,90
2023-12-23T01:34:02.785Z,90
2023-12-23T01:35:09.059Z,89.5
2023-12-23T01:36:15.316Z,90
2023-12-23T01:37:20.611Z,91.5
2023-12-23T01:38:26.891Z,91.5
2023-12-23T01:39:33.168Z,91.5
2023-12-23T01:40:39.435Z,91
2023-12-23T01:41:45.704Z,91
2023-12-23T01:42:51.983Z,90.5
2023-12-23T01:43:58.261Z,91
2023-12-23T01:45:04.521Z,91.5
2023-12-23T01:46:10.797Z,90
2023-12-23T01:47:17.065Z,90.5
2023-12-23T01:48:23.337Z,91
2023-12-23T01:49:29.604Z,90.5
2023-12-23T01:50:35.881Z,91
2023-12-23T01:51:41.170Z,91.5
2023-12-23T01:52:47.440Z,90
2023-12-23T01:53:53.710Z,90
2023-12-23T01:54:59.983Z,90
2023-12-23T01:56:06.258Z,91
2023-12-23T01:57:12.538Z,91
2023-12-23T01:58:18.800Z,90.5
2023-12-23T01:59:25.075Z,90.5
2023-12-23T02:00:31.343Z,91.5
2023-12-23T02:01:37.620Z,90.5
2023-12-23T02:02:43.890Z,91.5
2023-12-23T02:03:50.164Z,92.5
2023-12-23T02:04:56.440Z,92
2023-12-23T02:06:01.724Z,91
2023-12-23T02:07:07.997Z,92.5
2023-12-23T02:08:14.279Z,92.5
2023-12-23T02:09:20.541Z,92.5
2023-12-23T02:10:26.809Z,94
2023-12-23T02:11:33.086Z,93
2023-12-23T02:12:38.383Z,94.5
2023-12-23T02:13:44.655Z,95
2023-12-23T02:14:50.923Z,94.5
2023-12-23T02:15:57.191Z,94
2023-12-23T02:17:03.465Z,94.5
2023-12-23T02:18:09.741Z,95
2023-12-23T02:19:16.013Z,94
2023-12-23T02:20:22.282Z,94
2023-12-23T02:21:28.556Z,94.5
2023-12-23T02:22:34.841Z,94
2023-12-23T02:23:41.100Z,95
2023-12-23T02:24:47.378Z,94.5
2023-12-23T02:25:53.647Z,93.5
2023-12-23T02:26:58.932Z,94.5
2023-12-23T02:28:05.205Z,95
2023-12-23T02:29:11.485Z,94
2023-12-23T02:30:17.752Z,94.5
2023-12-23T02:31:24.026Z,94
2023-12-23T02:32:30.343Z,94
2023-12-23T02:33:36.553Z,94
2023-12-23T02:34:42.843Z,94.5
2023-12-23T02:35:49.115Z,92.5
2023-12-23T02:36:55.396Z,93
2023-12-23T02:38:01.650Z,91.5
2023-12-23T02:39:07.930Z,92
2023-12-23T02:40:14.199Z,91.5
2023-12-23T02:41:19.502Z,93
2023-12-23T02:42:25.766Z,93
2023-12-23T02:43:32.035Z,93
2023-12-23T02:44:38.309Z,92.5
2023-12-23T02:45:44.576Z,92.5
2023-12-23T02:46:50.852Z,92.5
2023-12-23T02:47:57.124Z,92.5
2023-12-23T02:49:03.388Z,92
2023-12-23T02:50:09.660Z,93.5
2023-12-23T02:51:15.943Z,93
2023-12-23T02:52:22.210Z,92
2023-12-23T02:53:28.483Z,92.5
2023-12-23T02:54:34.752Z,93
2023-12-23T02:55:40.041Z,92.5
2023-12-23T02:56:46.320Z,93
2023-12-23T02:57:52.580Z,93
2023-12-23T02:58:58.854Z,92.5
2023-12-23T03:00:05.132Z,92
2023-12-23T03:01:11.404Z,93
2023-12-23T03:02:17.672Z,93
2023-12-23T03:03:23.954Z,92.5
2023-12-23T03:04:30.224Z,92.5
2023-12-23T03:05:36.493Z,92
2023-12-23T03:06:42.771Z,92
2023-12-23T03:07:49.034Z,91.5
2023-12-23T03:08:55.312Z,91.5
2023-12-23T03:10:00.592Z,91
2023-12-23T03:11:06.857Z,90.5
2023-12-23T03:12:13.133Z,90
2023-12-23T03:13:19.411Z,90.5
2023-12-23T03:14:25.685Z,91.5
2023-12-23T03:15:31.961Z,91.5
2023-12-23T03:16:38.231Z,91
2023-12-23T03:17:44.494Z,91.5
2023-12-23T03:18:50.779Z,92
2023-12-23T03:19:57.045Z,91
2023-12-23T03:21:03.317Z,92
2023-12-23T03:22:09.590Z,91.5
2023-12-23T03:23:15.866Z,92
2023-12-23T03:24:21.148Z,91
2023-12-23T03:25:27.420Z,93
2023-12-23T03:26:33.695Z,91
2023-12-23T03:27:39.965Z,92.5
2023-12-23T03:28:46.238Z,91.5
2023-12-23T03:29:52.511Z,91.5
2023-12-23T03:30:58.782Z,93
2023-12-23T03:32:05.077Z,92.5
2023-12-23T03:33:11.322Z,92.5
2023-12-23T03:34:17.610Z,93.5
2023-12-23T03:35:23.900Z,94
2023-12-23T03:36:30.142Z,95
2023-12-23T03:37:36.416Z,93
2023-12-23T03:38:41.706Z,93.5
2023-12-23T03:39:47.971Z,94
2023-12-23T03:40:54.240Z,93
2023-12-23T03:42:00.527Z,93
2023-12-23T03:43:06.796Z,93
2023-12-23T03:44:13.068Z,94
2023-12-23T03:45:19.330Z,94
2023-12-23T03:46:25.607Z,93.5
2023-12-23T03:47:31.883Z,94.5
2023-12-23T03:48:38.178Z,93
2023-12-23T03:49:44.422Z,93
2023-12-23T03:50:50.697Z,93
2023-12-23T03:51:56.970Z,93.5
2023-12-23T03:53:02.259Z,93.5
2023-12-23T03:54:08.528Z,94.5
2023-12-23T03:55:14.808Z,94
2023-12-23T03:56:21.090Z,93
2023-12-23T03:57:27.356Z,94
2023-12-23T03:58:33.627Z,94.5
2023-12-23T03:59:39.900Z,94
2023-12-23T04:00:46.170Z,93.5
2023-12-23T04:01:52.449Z,93.5
2023-12-23T04:02:58.708Z,94
2023-12-23T04:04:04.992Z,93.5
2023-12-23T04:05:11.253Z,94
2023-12-23T04:06:17.545Z,94.5
2023-12-23T04:07:22.823Z,94
2023-12-23T04:08:29.098Z,94.5
2023-12-23T04:09:35.363Z,94.5
2023-12-23T04:10:41.637Z,95
2023-12-23T04:11:47.914Z,94
2023-12-23T04:12:54.182Z,94.5
2023-12-23T04:14:00.455Z,93.5
2023-12-23T04:15:06.729Z,94.5
2023-12-23T04:16:12.997Z,93.5
2023-12-23T04:17:19.271Z,92.5
2023-12-23T04:18:25.546Z,94
2023-12-23T04:19:31.818Z,93.5
2023-12-23T04:20:38.098Z,94.5
2023-12-23T04:21:43.371Z,94.5
2023-12-23T04:22:49.648Z,93
2023-12-23T04:23:55.942Z,94.5
2023-12-23T04:25:02.198Z,95.5
2023-12-23T04:26:08.470Z,94.5
2023-12-23T04:27:14.741Z,94
2023-12-23T04:28:21.032Z,95
2023-12-23T04:29:27.282Z,95.5
2023-12-23T04:30:33.561Z,94.5
2023-12-23T04:31:39.827Z,94
2023-12-23T04:32:46.093Z,95
2023-12-23T04:33:52.369Z,94.5
2023-12-23T04:34:58.651Z,95
2023-12-23T04:36:03.925Z,94.5
2023-12-23T04:37:10.201Z,96
2023-12-23T04:38:16.473Z,94.5
2023-12-23T04:39:22.745Z,94.5
2023-12-23T04:40:29.018Z,95
2023-12-23T04:41:35.288Z,94
2023-12-23T04:42:41.566Z,94
2023-12-23T04:43:47.837Z,93
2023-12-23T04:44:54.106Z,93.5
2023-12-23T04:46:00.384Z,94
2023-12-23T04:47:06.659Z,94.5
2023-12-23T04:48:12.927Z,95.5
2023-12-23T04:49:19.195Z,95
2023-12-23T04:50:24.479Z,95
2023-12-23T04:51:30.762Z,94.5
2023-12-23T04:52:37.016Z,94
2023-12-23T04:53:43.301Z,95
2023-12-23T04:54:49.575Z,95
2023-12-23T04:55:55.844Z,95.5
2023-12-23T04:57:02.121Z,94
2023-12-23T04:58:08.381Z,94
2023-12-23T04:59:14.670Z,94
2023-12-23T05:00:20.937Z,93
2023-12-23T05:01:27.210Z,92.5
2023-12-23T05:02:33.477Z,93
2023-12-23T05:03:39.761Z,92.5
2023-12-23T05:04:45.046Z,93.5
2023-12-23T05:05:51.314Z,94.5
2023-12-23T05:06:57.587Z,93.5
2023-12-23T05:08:03.866Z,94
2023-12-23T05:09:10.133Z,93.5
2023-12-23T05:10:16.397Z,93
2023-12-23T05:11:22.680Z,94
2023-12-23T05:12:28.931Z,93
2023-12-23T05:13:35.214Z,93.5
2023-12-23T05:14:41.488Z,93.5
2023-12-23T05:15:47.767Z,94
2023-12-23T05:16:54.034Z,93.5
2023-12-23T05:18:00.314Z,93
2023-12-23T05:19:05.596Z,94
2023-12-23T05:20:11.866Z,93.5
2023-12-23T05:21:18.144Z,94
2023-12-23T05:22:24.412Z,93.5
2023-12-23T05:23:30.690Z,93.5
2023-12-23T05:24:36.957Z,94
2023-12-23T05:25:43.228Z,93.5
2023-12-23T05:26:49.489Z,94.5
2023-12-23T05:27:55.773Z,94
2023-12-23T05:29:02.047Z,94.5
2023-12-23T05:30:08.320Z,95
2023-12-23T05:31:14.585Z,94.5
2023-12-23T05:32:20.867Z,95
2023-12-23T05:33:26.156Z,96
2023-12-23T05:34:32.424Z,96
2023-12-23T05:35:38.691Z,97
2023-12-23T05:36:44.955Z,96
2023-12-23T05:37:51.237Z,95.5
2023-12-23T05:38:57.511Z,95
2023-12-23T05:40:03.793Z,95.5
2023-12-23T05:41:10.064Z,95.5
2023-12-23T05:42:16.344Z,95
2023-12-23T05:43:22.598Z,96
2023-12-23T05:44:28.881Z,96
2023-12-23T05:45:35.150Z,96.5
2023-12-23T05:46:41.420Z,97
2023-12-23T05:47:46.715Z,97.5
2023-12-23T05:48:52.985Z,96
2023-12-23T05:49:59.260Z,96
2023-12-23T05:51:05.515Z,97
2023-12-23T05:52:11.815Z,97
2023-12-23T05:53:18.063Z,96.5
2023-12-23T05:54:23.360Z,97.5
2023-12-23T05:55:29.640Z,97.5
2023-12-23T05:56:35.920Z,96.5
2023-12-23T05:57:42.182Z,96
2023-12-23T05:58:48.446Z,95.5
2023-12-23T05:59:54.726Z,95.5
2023-12-23T06:01:00.998Z,96.5
2023-12-23T06:02:07.266Z,97
2023-12-23T06:03:13.549Z,96
2023-12-23T06:04:19.814Z,95
2023-12-23T06:05:26.088Z,95.5
2023-12-23T06:06:32.361Z,96
2023-12-23T06:07:38.630Z,95
2023-12-23T06:08:43.920Z,94.5
2023-12-23T06:09:50.191Z,94.5
2023-12-23T06:10:56.466Z,94
2023-12-23T06:12:02.735Z,94
2023-12-23T06:13:09.011Z,94.5
2023-12-23T06:14:15.280Z,94
2023-12-23T06:15:21.544Z,94
2023-12-23T06:16:27.822Z,94.5
2023-12-23T06:17:34.106Z,93
2023-12-23T06:18:40.364Z,93.5
2023-12-23T06:19:46.643Z,94
2023-12-23T06:20:52.913Z,92.5
2023-12-23T06:21:59.192Z,94
2023-12-23T06:23:04.476Z,92
2023-12-23T06:24:10.770Z,92
2023-12-23T06:25:17.017Z,91
2023-12-23T06:26:23.287Z,92.5
2023-12-23T06:27:29.559Z,92.5
2023-12-23T06:28:35.866Z,92
2023-12-23T06:29:42.101Z,92.5
2023-12-23T06:30:48.386Z,91.5
2023-12-23T06:31:54.655Z,90.5
2023-12-23T06:33:00.925Z,91
2023-12-23T06:34:07.206Z,91
2023-12-23T06:35:13.477Z,90.5
2023-12-23T06:36:19.745Z,90.5
2023-12-23T06:37:25.036Z,90
2023-12-23T06:38:31.303Z,92
2023-12-23T06:39:37.572Z,90
2023-12-23T06:40:43.860Z,90
2023-12-23T06:41:50.127Z,88
2023-12-23T06:42:56.403Z,90
2023-12-23T06:44:02.674Z,88.5
2023-12-23T06:45:08.969Z,88.5
2023-12-23T06:46:15.213Z,89
2023-12-23T06:47:21.486Z,90.5
2023-12-23T06:48:27.757Z,88.5
2023-12-23T06:49:34.033Z,89.5
2023-12-23T06:50:40.341Z,90
2023-12-23T06:51:45.587Z,89
2023-12-23T06:52:51.885Z,89.5
2023-12-23T06:53:58.166Z,88.5
2023-12-23T06:55:04.412Z,88.5
2023-12-23T06:56:10.707Z,88
2023-12-23T06:57:16.954Z,87.5
2023-12-23T06:58:23.241Z,88
2023-12-23T06:59:29.494Z,87.5
2023-12-23T07:00:35.799Z,88
2023-12-23T07:01:42.036Z,87.5
2023-12-23T07:02:48.340Z,88
2023-12-23T07:03:54.592Z,87.5
2023-12-23T07:05:00.855Z,88.5
2023-12-23T07:06:06.167Z,88.5
2023-12-23T07:07:12.408Z,87.5
2023-12-23T07:08:18.680Z,87
2023-12-23T07:09:24.953Z,86.5
2023-12-23T07:10:31.230Z,86.5
2023-12-23T07:11:37.501Z,86.5
2023-12-23T07:12:43.786Z,86.5
2023-12-23T07:13:50.050Z,86.5
2023-12-23T07:14:56.308Z,87
2023-12-23T07:16:02.611Z,87
2023-12-23T07:17:08.877Z,87.5
2023-12-23T07:18:15.129Z,87.5
2023-12-23T07:19:21.403Z,88
2023-12-23T07:20:26.689Z,87
2023-12-23T07:21:32.994Z,86.5
2023-12-23T07:22:39.242Z,86
2023-12-23T07:23:45.515Z,85.5
2023-12-23T07:24:51.793Z,85.5
2023-12-23T07:25:58.050Z,86
2023-12-23T07:27:04.323Z,86.5
2023-12-23T07:28:10.603Z,87
2023-12-23T07:29:16.861Z,86.5
2023-12-23T07:30:23.137Z,87.5
2023-12-23T07:31:29.408Z,85.5
2023-12-23T07:32:35.692Z,86
2023-12-23T07:33:41.953Z,87
2023-12-23T07:34:47.236Z,86.5
2023-12-23T07:35:53.521Z,85.5
2023-12-23T07:36:59.788Z,87
2023-12-23T07:38:06.059Z,87
2023-12-23T07:39:12.337Z,85
2023-12-23T07:40:18.592Z,86
2023-12-23T07:41:24.882Z,84.5
2023-12-23T07:42:31.152Z,85.5
2023-12-23T07:43:37.434Z,85.5
2023-12-23T07:44:43.707Z,84
2023-12-23T07:45:49.974Z,84
2023-12-23T07:46:56.242Z,84
2023-12-23T07:48:02.504Z,84.5
2023-12-23T07:49:07.811Z,84
2023-12-23T07:50:14.077Z,83.5
2023-12-23T07:51:20.346Z,84.5
2023-12-23T07:52:26.626Z,84
2023-12-23T07:53:32.892Z,84
2023-12-23T07:54:39.161Z,84
2023-12-23T07:55:45.442Z,84
2023-12-23T07:56:51.711Z,82.5
2023-12-23T07:57:57.988Z,83
2023-12-23T07:59:04.256Z,84.5
2023-12-23T08:00:10.539Z,84
2023-12-23T08:01:16.809Z,84.5
2023-12-23T08:02:23.072Z,84.5
2023-12-23T08:03:28.368Z,85
2023-12-23T08:04:34.632Z,85.5
2023-12-23T08:05:40.915Z,85
2023-12-23T08:06:47.181Z,85
2023-12-23T08:07:53.443Z,85
2023-12-23T08:08:59.730Z,84
2023-12-23T08:10:06.000Z,85
2023-12-23T08:11:12.266Z,84.5
2023-12-23T08:12:18.544Z,84
2023-12-23T08:13:24.819Z,84
2023-12-23T08:14:31.083Z,84
2023-12-23T08:15:37.358Z,83
2023-12-23T08:16:43.619Z,83.5
2023-12-23T08:17:48.915Z,84
2023-12-23T08:18:55.199Z,83.5
2023-12-23T08:20:01.450Z,84.5
2023-12-23T08:21:07.729Z,84.5
2023-12-23T08:22:14.010Z,84
2023-12-23T08:23:20.281Z,84.5
2023-12-23T08:24:26.558Z,85.5
2023-12-23T08:25:32.814Z,84.5
2023-12-23T08:26:39.102Z,85.5
2023-12-23T08:27:45.355Z,86
2023-12-23T08:28:51.631Z,86
2023-12-23T08:29:57.904Z,86.5
2023-12-23T08:31:04.180Z,85.5
2023-12-23T08:32:09.472Z,86
2023-12-23T08:33:15.745Z,86
2023-12-23T08:34:22.018Z,85.5
2023-12-23T08:35:28.276Z,86
2023-12-23T08:36:34.562Z,85.5
2023-12-23T08:37:40.830Z,86.5
2023-12-23T08:38:47.104Z,87
2023-12-23T08:39:53.378Z,87
2023-12-23T08:40:59.639Z,87
2023-12-23T08:42:05.926Z,87
2023-12-23T08:43:12.187Z,87.5
2023-12-23T08:44:18.467Z,87.5
2023-12-23T08:45:24.739Z,87.5
2023-12-23T08:46:30.028Z,87.5
2023-12-23T08:47:36.281Z,88
2023-12-23T08:48:42.562Z,88
2023-12-23T08:49:48.847Z,88.5
2023-12-23T08:50:55.113Z,88.5
2023-12-23T08:52:01.383Z,89.5
2023-12-23T08:53:07.653Z,89
2023-12-23T08:54:13.916Z,89
2023-12-23T08:55:20.195Z,89
2023-12-23T08:56:26.472Z,90
2023-12-23T08:57:32.739Z,89.5
2023-12-23T08:58:39.017Z,89.5
2023-12-23T08:59:45.278Z,89
2023-12-23T09:00:50.575Z,89
2023-12-23T09:01:56.841Z,89
2023-12-23T09:03:03.119Z,88.5
2023-12-23T09:04:09.391Z,89
2023-12-23T09:05:15.679Z,88.5
2023-12-23T09:06:21.939Z,89
2023-12-23T09:07:28.206Z,89
2023-12-23T09:08:34.479Z,89
2023-12-23T09:09:40.741Z,89.5
2023-12-23T09:10:47.009Z,90
2023-12-23T09:11:53.291Z,90
2023-12-23T09:12:59.563Z,90
2023-12-23T09:14:05.829Z,90.5
2023-12-23T09:15:11.137Z,90.5
2023-12-23T09:16:17.402Z,90.5
2023-12-23T09:17:23.682Z,91
2023-12-23T09:18:29.948Z,91
2023-12-23T09:19:36.211Z,91.5
2023-12-23T09:20:42.486Z,91
2023-12-23T09:21:48.776Z,90.5
2023-12-23T09:22:55.035Z,90.5
2023-12-23T09:24:01.322Z,90
2023-12-23T09:25:07.584Z,90
2023-12-23T09:26:13.858Z,89.5
2023-12-23T09:27:20.124Z,89.5
2023-12-23T09:28:26.403Z,90
2023-12-23T09:29:31.682Z,90
2023-12-23T09:30:37.969Z,91
2023-12-23T09:31:44.236Z,90
2023-12-23T09:32:50.512Z,90.5
2023-12-23T09:33:56.775Z,90
2023-12-23T09:35:03.060Z,90
2023-12-23T09:36:08.353Z,90.5
2023-12-23T09:37:14.610Z,89.5
2023-12-23T09:38:20.889Z,90
2023-12-23T09:39:27.161Z,89
2023-12-23T09:40:33.438Z,89
2023-12-23T09:41:39.706Z,89
2023-12-23T09:42:45.975Z,88
2023-12-23T09:43:52.252Z,87.5
2023-12-23T09:44:58.523Z,87.5
2023-12-23T09:46:04.796Z,88
2023-12-23T09:47:11.064Z,88
2023-12-23T09:48:17.336Z,88
2023-12-23T09:49:23.684Z,88
2023-12-23T09:50:28.897Z,88
2023-12-23T09:51:35.172Z,88.5
2023-12-23T09:52:41.457Z,88
2023-12-23T09:53:47.709Z,88
2023-12-23T09:54:53.987Z,88
2023-12-23T09:56:00.259Z,87
2023-12-23T09:57:06.531Z,87.5
2023-12-23T09:58:12.798Z,87
2023-12-23T09:59:19.074Z,88
2023-12-23T10:00:25.342Z,87
2023-12-23T10:01:31.620Z,87.5
2023-12-23T10:02:37.884Z,88
2023-12-23T10:03:44.160Z,88
2023-12-23T10:04:49.529Z,87.5
2023-12-23T10:05:55.726Z,87.5
2023-12-23T10:07:01.989Z,88
2023-12-23T10:08:08.302Z,88
2023-12-23T10:09:14.532Z,88
2023-12-23T10:10:20.809Z,87.5
2023-12-23T10:11:27.080Z,87.5
2023-12-23T10:12:33.350Z,87.5
2023-12-23T10:13:39.626Z,87.5
2023-12-23T10:14:45.899Z,88.5
2023-12-23T10:15:52.174Z,87
2023-12-23T10:16:58.445Z,87.5
2023-12-23T10:18:04.711Z,88.5
2023-12-23T10:19:10.006Z,89
2023-12-23T10:20:16.280Z,89
2023-12-23T10:21:22.548Z,89.5
2023-12-23T10:22:28.814Z,89
2023-12-23T10:23:35.089Z,89.5
2023-12-23T10:24:41.376Z,89.5
2023-12-23T10:25:47.681Z,91
2023-12-23T10:26:53.915Z,91
2023-12-23T10:28:00.186Z,91
2023-12-23T10:29:06.459Z,91
2023-12-23T10:30:12.730Z,90.5
2023-12-23T10:31:18.999Z,90.5
2023-12-23T10:32:25.271Z,90.5
2023-12-23T10:33:30.561Z,90
2023-12-23T10:34:36.837Z,90.5
2023-12-23T10:35:43.094Z,90
2023-12-23T10:36:49.367Z,91
2023-12-23T10:37:55.636Z,91
2023-12-23T10:39:01.914Z,90.5
2023-12-23T10:40:08.212Z,91
2023-12-23T10:41:14.458Z,90.5
2023-12-23T10:42:20.770Z,90
2023-12-23T10:43:26.993Z,89.5
2023-12-23T10:44:33.275Z,90.5
2023-12-23T10:45:39.547Z,90
2023-12-23T10:46:45.821Z,90
2023-12-23T10:47:51.096Z,91.5
2023-12-23T10:48:57.379Z,91.5
2023-12-23T10:50:03.649Z,91.5
2023-12-23T10:51:09.923Z,91
2023-12-23T10:52:16.193Z,91.5
2023-12-23T10:53:22.464Z,91.5
2023-12-23T10:54:28.733Z,91.5
2023-12-23T10:55:35.016Z,92
2023-12-23T10:56:41.283Z,92.5
2023-12-23T10:57:47.557Z,92.5
2023-12-23T10:58:53.827Z,91
2023-12-23T11:00:00.087Z,91
2023-12-23T11:01:06.394Z,91.5
2023-12-23T11:02:11.652Z,91.5
2023-12-23T11:03:17.933Z,90.5
2023-12-23T11:04:24.207Z,90
2023-12-23T11:05:30.464Z,90
2023-12-23T11:06:36.757Z,91
2023-12-23T11:07:43.042Z,91
2023-12-23T11:08:49.294Z,92
2023-12-23T11:09:55.578Z,91.5
2023-12-23T11:11:01.842Z,90.5
2023-12-23T11:12:08.100Z,90.5
2023-12-23T11:13:14.393Z,92
2023-12-23T11:14:20.669Z,92.5
2023-12-23T11:15:26.946Z,91.5
2023-12-23T11:16:32.213Z,92
2023-12-23T11:17:38.487Z,93
2023-12-23T11:18:44.757Z,93.5
2023-12-23T11:19:51.023Z,92
2023-12-23T11:20:57.382Z,92.5
2023-12-23T11:22:03.576Z,93
2023-12-23T11:23:09.846Z,91.5
2023-12-23T11:24:16.115Z,90.5
2023-12-23T11:25:22.380Z,91.5
2023-12-23T11:26:28.658Z,91.5
2023-12-23T11:27:34.934Z,91.5
2023-12-23T11:28:41.219Z,91.5
2023-12-23T11:29:47.493Z,91
2023-12-23T11:30:52.775Z,92
2023-12-23T11:31:59.038Z,91.5
2023-12-23T11:33:05.318Z,93.5
2023-12-23T11:34:11.584Z,93
2023-12-23T11:35:17.851Z,93
2023-12-23T11:36:24.127Z,93.5
2023-12-23T11:37:30.398Z,93.5
2023-12-23T11:38:36.676Z,94.5
2023-12-23T11:39:42.948Z,93.5
2023-12-23T11:40:49.213Z,94.5
2023-12-23T11:41:55.482Z,94.5
2023-12-23T11:43:01.757Z,94
2023-12-23T11:44:08.042Z,94.5
2023-12-23T11:45:13.319Z,93.5
2023-12-23T11:46:19.612Z,94.5
2023-12-23T11:47:25.857Z,94.5
2023-12-23T11:48:32.137Z,94.5
2023-12-23T11:49:38.407Z,95
2023-12-23T11:50:44.679Z,95
2023-12-23T11:51:50.960Z,95
2023-12-23T11:52:57.240Z,96
2023-12-23T11:54:03.495Z,95.5
2023-12-23T11:55:09.763Z,95.5
2023-12-23T11:56:16.043Z,96
2023-12-23T11:57:22.309Z,96.5
2023-12-23T11:58:28.592Z,96.5
2023-12-23T11:59:33.879Z,97
2023-12-23T12:00:40.140Z,96.5
2023-12-23T12:01:46.410Z,96.5
2023-12-23T12:02:52.677Z,97
2023-12-23T12:03:58.971Z,97
2023-12-23T12:05:05.228Z,97.5
2023-12-23T12:06:11.511Z,97.5
2023-12-23T12:07:17.775Z,98
2023-12-23T12:08:24.057Z,98
2023-12-23T12:09:30.320Z,98
2023-12-23T12:10:36.598Z,98.5
2023-12-23T12:11:42.876Z,98.5
2023-12-23T12:12:49.148Z,98.5
2023-12-23T12:13:54.432Z,98
2023-12-23T12:15:00.704Z,98
2023-12-23T12:16:06.978Z,97.5
2023-12-23T12:17:13.278Z,98
2023-12-23T12:18:19.517Z,98
2023-12-23T12:19:25.793Z,97.5
2023-12-23T12:20:32.062Z,98
2023-12-23T12:21:38.336Z,98.5
2023-12-23T12:22:44.612Z,98.5
2023-12-23T12:23:50.889Z,98.5
2023-12-23T12:24:57.153Z,98.5
2023-12-23T12:26:03.429Z,99
2023-12-23T12:27:09.700Z,99.5
2023-12-23T12:28:14.992Z,99.5
2023-12-23T12:29:21.258Z,99
2023-12-23T12:30:27.531Z,99
2023-12-23T12:31:33.805Z,99
2023-12-23T12:32:40.288Z,99
2023-12-23T12:33:46.346Z,99.5
2023-12-23T12:34:52.627Z,99.5
2023-12-23T12:35:58.893Z,99
2023-12-23T12:37:05.167Z,99
2023-12-23T12:38:11.438Z,98.5
2023-12-23T12:39:17.706Z,99
2023-12-23T12:40:23.985Z,99.5
2023-12-23T12:41:30.273Z,99.5
2023-12-23T12:42:35.544Z,99.5
2023-12-23T12:43:41.825Z,98.5
2023-12-23T12:44:48.085Z,99
2023-12-23T12:45:54.357Z,98
2023-12-23T12:47:00.630Z,97.5
2023-12-23T12:48:06.898Z,97.5
2023-12-23T12:49:13.177Z,97.5
2023-12-23T12:50:19.447Z,97.5
2023-12-23T12:51:25.721Z,96.5
2023-12-23T12:52:31.997Z,97.5
2023-12-23T12:53:38.266Z,97
2023-12-23T12:54:44.534Z,96.5
2023-12-23T12:55:50.806Z,96.5
2023-12-23T12:56:56.105Z,97
2023-12-23T12:58:02.379Z,97.5
2023-12-23T12:59:08.641Z,98
2023-12-23T13:00:14.923Z,96.5
2023-12-23T13:01:21.194Z,97
2023-12-23T13:02:27.459Z,97
2023-12-23T13:03:33.728Z,97
2023-12-23T13:04:40.007Z,96.5
2023-12-23T13:05:46.280Z,95.5
2023-12-23T13:06:52.541Z,95
2023-12-23T13:07:58.827Z,96
2023-12-23T13:09:05.101Z,96
2023-12-23T13:10:11.361Z,96.5
2023-12-23T13:11:16.657Z,96.5
2023-12-23T13:12:22.924Z,94.5
2023-12-23T13:13:29.203Z,95.5
2023-12-23T13:14:35.471Z,95
2023-12-23T13:15:41.748Z,95
2023-12-23T13:16:48.004Z,92
2023-12-23T13:17:53.299Z,92.5
2023-12-23T13:18:59.575Z,94
2023-12-23T13:20:05.844Z,95
2023-12-23T13:21:12.123Z,95
2023-12-23T13:22:18.388Z,94.5
2023-12-23T13:23:24.664Z,95.5
2023-12-23T13:24:30.940Z,93
2023-12-23T13:25:37.207Z,92.5
2023-12-23T13:26:43.483Z,91.5
2023-12-23T13:27:49.757Z,90.5
2023-12-23T13:28:56.023Z,90
2023-12-23T13:30:02.293Z,91
2023-12-23T13:31:08.569Z,92
2023-12-23T13:32:13.857Z,91.5
2023-12-23T13:33:20.127Z,91
2023-12-23T13:34:26.408Z,91.5
2023-12-23T13:35:32.664Z,90
2023-12-23T13:36:38.940Z,90.5
2023-12-23T13:37:45.210Z,92
2023-12-23T13:38:51.485Z,90.5
2023-12-23T13:39:57.769Z,91
2023-12-23T13:41:04.033Z,91
2023-12-23T13:42:10.299Z,90
2023-12-23T13:43:16.586Z,91
2023-12-23T13:44:22.894Z,90.5
2023-12-23T13:45:29.126Z,90
2023-12-23T13:46:34.414Z,89.5
2023-12-23T13:47:40.677Z,89
2023-12-23T13:48:46.966Z,90
2023-12-23T13:49:53.232Z,90.5
2023-12-23T13:50:59.490Z,90
2023-12-23T13:52:05.794Z,91
2023-12-23T13:53:12.054Z,90
2023-12-23T13:54:18.320Z,90.5
2023-12-23T13:55:24.589Z,90
2023-12-23T13:56:30.861Z,90
2023-12-23T13:57:37.139Z,91
2023-12-23T13:58:43.408Z,90
2023-12-23T13:59:49.678Z,90
2023-12-23T14:00:54.972Z,90
2023-12-23T14:02:01.236Z,91
2023-12-23T14:03:07.509Z,89.5
2023-12-23T14:04:13.783Z,90.5
2023-12-23T14:05:20.095Z,91
2023-12-23T14:06:26.335Z,90.5
2023-12-23T14:07:32.589Z,90
2023-12-23T14:08:38.869Z,89
2023-12-23T14:09:45.149Z,90
2023-12-23T14:10:51.515Z,91.5
2023-12-23T14:11:57.692Z,92.5
2023-12-23T14:13:03.960Z,92.5
2023-12-23T14:14:10.244Z,90.5
2023-12-23T14:15:15.546Z,90.5
2023-12-23T14:16:21.796Z,91.5
2023-12-23T14:17:28.100Z,91
2023-12-23T14:18:34.333Z,92
2023-12-23T14:19:40.615Z,92
2023-12-23T14:20:46.880Z,91
2023-12-23T14:21:53.176Z,91.5
2023-12-23T14:22:59.424Z,90
2023-12-23T14:24:05.705Z,90.5
2023-12-23T14:25:11.971Z,91
2023-12-23T14:26:18.247Z,92
2023-12-23T14:27:24.517Z,91
2023-12-23T14:28:30.783Z,91
2023-12-23T14:29:36.075Z,91
2023-12-23T14:30:42.343Z,91
2023-12-23T14:31:48.618Z,90.5
2023-12-23T14:32:54.898Z,89.5
2023-12-23T14:34:01.169Z,88.5
2023-12-23T14:35:07.425Z,88
2023-12-23T14:36:13.702Z,89.5
2023-12-23T14:37:19.980Z,88.5
2023-12-23T14:38:26.262Z,87.5
2023-12-23T14:39:32.536Z,89
2023-12-23T14:40:38.798Z,89
2023-12-23T14:41:45.070Z,89
2023-12-23T14:42:51.342Z,90
2023-12-23T14:43:56.635Z,87.5
2023-12-23T14:45:02.918Z,89
2023-12-23T14:46:09.183Z,88.5
2023-12-23T14:47:15.450Z,91
2023-12-23T14:48:21.756Z,89.5
2023-12-23T14:49:28.001Z,89.5
2023-12-23T14:50:34.291Z,89
2023-12-23T14:51:40.537Z,90.5
2023-12-23T14:52:46.805Z,90.5
2023-12-23T14:53:53.081Z,90
2023-12-23T14:54:59.354Z,90
2023-12-23T14:56:05.629Z,90
2023-12-23T14:57:11.899Z,89.5
2023-12-23T14:58:17.189Z,90.5
2023-12-23T14:59:23.457Z,89.5
2023-12-23T15:00:29.728Z,90.5
2023-12-23T15:01:36.007Z,91.5
2023-12-23T15:02:42.269Z,91.5
2023-12-23T15:03:48.560Z,93
2023-12-23T15:04:54.812Z,90.5
2023-12-23T15:06:01.113Z,91.5
2023-12-23T15:07:07.358Z,92.5
2023-12-23T15:08:13.647Z,91
2023-12-23T15:09:19.911Z,91
2023-12-23T15:10:26.189Z,91
2023-12-23T15:11:32.451Z,92